Time;durP1;ratioP1;P1;durP2;ratioP2;P2;SDS_P1;SDS_P2;PMS_P1;PMS_P2;Temp;Humidity;BMP_temperature;BMP_pressure;BME280_temperature;BME280_humidity;BME280_pressure;Samples;Min_cycle;Max_cycle;Signal;HPM_P1;HPM_P2
2023/02/22 00:00:42;;;;;;;6.57;4.10;;;6.70;61.50;;;;;;5035055;28;20026;-74
2023/02/22 00:03:14;;;;;;;6.75;3.95;;;6.60;61.30;;;;;;5035039;28;20017;-75
2023/02/22 00:05:46;;;;;;;7.10;3.90;;;6.30;63.30;;;;;;5035312;28;20025;-75
2023/02/22 00:08:14;;;;;;;10.35;4.93;;;6.20;63.20;;;;;;5018676;28;20048;-76
2023/02/22 00:10:39;;;;;;;7.97;4.88;;;6.10;64.00;;;;;;5018325;28;20091;-76
2023/02/22 00:13:08;;;;;;;10.98;5.10;;;6.00;65.00;;;;;;5034950;28;20466;-76
2023/02/22 00:15:34;;;;;;;9.52;4.97;;;6.00;65.20;;;;;;5018164;28;20037;-76
2023/02/22 00:18:00;;;;;;;8.88;4.43;;;6.10;65.00;;;;;;5035897;28;20087;-75
2023/02/22 00:20:26;;;;;;;12.27;7.07;;;6.20;64.40;;;;;;5034677;28;20056;-77
2023/02/22 00:22:52;;;;;;;15.10;8.40;;;6.20;63.40;;;;;;5034807;28;20438;-77
2023/02/22 00:25:23;;;;;;;14.75;8.13;;;6.20;62.10;;;;;;5034879;28;20068;-79
2023/02/22 00:27:51;;;;;;;14.32;8.15;;;6.30;62.00;;;;;;5034164;28;20064;-79
2023/02/22 00:30:23;;;;;;;14.50;7.82;;;6.30;61.70;;;;;;5034436;28;20026;-75
2023/02/22 00:32:50;;;;;;;15.15;8.70;;;6.40;61.40;;;;;;5034267;28;20072;-76
2023/02/22 00:35:19;;;;;;;15.88;7.60;;;6.40;61.10;;;;;;5034639;28;20482;-74
2023/02/22 00:37:50;;;;;;;14.32;7.18;;;6.50;60.40;;;;;;5034307;28;20026;-75
2023/02/22 00:40:20;;;;;;;9.65;6.53;;;6.50;60.00;;;;;;5034323;28;20029;-75
2023/02/22 00:42:46;;;;;;;9.88;5.63;;;6.50;59.80;;;;;;5034136;28;20108;-75
2023/02/22 00:45:14;;;;;;;7.95;4.65;;;6.50;59.60;;;;;;5034275;28;20111;-75
2023/02/22 00:47:40;;;;;;;7.10;4.15;;;6.40;60.00;;;;;;5034668;28;20061;-76
2023/02/22 00:50:08;;;;;;;8.13;4.50;;;6.40;60.20;;;;;;5035940;28;20432;-74
2023/02/22 00:52:35;;;;;;;12.18;5.00;;;6.30;61.10;;;;;;5034274;28;20059;-74
2023/02/22 00:55:01;;;;;;;7.57;5.18;;;6.30;62.60;;;;;;5034083;28;20064;-74
2023/02/22 00:57:27;;;;;;;10.23;4.97;;;6.20;62.30;;;;;;5034294;28;20092;-77
2023/02/22 00:59:56;;;;;;;8.57;4.90;;;6.10;62.50;;;;;;5017755;28;20359;-80
2023/02/22 01:02:25;;;;;;;9.20;4.53;;;6.10;62.70;;;;;;5033614;28;20061;-74
2023/02/22 01:04:51;;;;;;;7.93;4.57;;;6.10;63.00;;;;;;5033209;28;20018;-74
2023/02/22 01:07:17;;;;;;;7.93;5.30;;;6.00;63.00;;;;;;5033457;28;20034;-77
2023/02/22 01:09:43;;;;;;;12.02;5.72;;;6.10;63.10;;;;;;5017867;28;20026;-78
2023/02/22 01:12:19;;;;;;;10.25;4.97;;;6.00;63.40;;;;;;5034124;28;20022;-76
2023/02/22 01:14:45;;;;;;;9.88;5.38;;;6.00;63.40;;;;;;5033844;28;20029;-73
2023/02/22 01:17:11;;;;;;;9.63;4.65;;;6.10;63.40;;;;;;5033786;28;20026;-77
2023/02/22 01:19:36;;;;;;;9.52;5.38;;;6.00;63.50;;;;;;5033633;28;20057;-75
2023/02/22 01:22:04;;;;;;;12.60;5.97;;;6.10;63.70;;;;;;5016889;28;20029;-74
2023/02/22 01:24:29;;;;;;;10.35;6.13;;;6.10;63.60;;;;;;5017452;28;20025;-77
2023/02/22 01:26:55;;;;;;;11.20;5.95;;;6.10;63.60;;;;;;5033750;28;20036;-75
2023/02/22 01:29:21;;;;;;;11.05;6.13;;;6.00;63.60;;;;;;5033664;28;20025;-77
2023/02/22 01:31:53;;;;;;;9.63;4.95;;;6.10;63.80;;;;;;5033328;28;20056;-76
2023/02/22 01:34:19;;;;;;;9.23;5.07;;;6.00;64.00;;;;;;5033248;28;20049;-75
2023/02/22 01:36:45;;;;;;;11.77;5.07;;;6.00;63.90;;;;;;5033296;28;20501;-77
2023/02/22 01:39:10;;;;;;;10.20;5.18;;;6.10;63.90;;;;;;5016801;28;20029;-76
2023/02/22 01:41:38;;;;;;;8.68;4.47;;;6.10;63.80;;;;;;5033253;28;20138;-75
2023/02/22 01:44:33;;;;;;;7.70;4.28;;;6.00;64.00;;;;;;5033192;28;20021;-76
2023/02/22 01:47:02;;;;;;;6.55;3.55;;;6.10;64.20;;;;;;5016782;28;20021;-75
2023/02/22 01:49:37;;;;;;;7.20;4.32;;;6.10;64.10;;;;;;5016376;28;20040;-75
2023/02/22 01:52:07;;;;;;;8.40;4.25;;;6.10;63.80;;;;;;5016305;28;20064;-77
2023/02/22 01:54:39;;;;;;;8.50;5.05;;;6.10;63.20;;;;;;5032845;28;20083;-75
2023/02/22 01:57:28;;;;;;;8.05;4.63;;;6.20;63.10;;;;;;5032848;28;20036;-75
2023/02/22 02:00:09;;;;;;;9.95;4.78;;;6.10;62.50;;;;;;5032972;28;20550;-79
2023/02/22 02:02:36;;;;;;;7.82;4.40;;;6.10;62.10;;;;;;5033057;28;20025;-79
2023/02/22 02:05:06;;;;;;;8.00;4.45;;;6.00;61.90;;;;;;5032905;28;20411;-78
2023/02/22 02:07:33;;;;;;;9.23;4.53;;;6.10;61.70;;;;;;5032915;28;20055;-79
2023/02/22 02:10:01;;;;;;;9.27;4.90;;;6.00;61.10;;;;;;5032594;28;20033;-75
2023/02/22 02:12:30;;;;;;;6.97;4.15;;;6.00;61.00;;;;;;5032137;28;20121;-75
2023/02/22 02:15:32;;;;;;;10.23;4.38;;;5.90;61.00;;;;;;5032135;28;20071;-75
2023/02/22 02:18:01;;;;;;;7.28;4.53;;;5.90;61.50;;;;;;4956439;28;20023;-76
2023/02/22 02:20:54;;;;;;;4.85;3.53;;;5.90;62.10;;;;;;5018734;28;20045;-75
2023/02/22 02:23:56;;;;;;;6.22;3.45;;;5.80;62.40;;;;;;5032732;28;20048;-75
2023/02/22 02:26:40;;;;;;;10.93;3.80;;;5.80;62.30;;;;;;5032502;28;20021;-78
2023/02/22 02:29:24;;;;;;;6.40;3.50;;;5.80;62.10;;;;;;5032202;28;20061;-75
2023/02/22 02:32:07;;;;;;;5.85;2.90;;;5.70;62.10;;;;;;5032318;28;20481;-75
2023/02/22 02:35:01;;;;;;;5.22;2.97;;;5.70;62.00;;;;;;5015724;28;20045;-75
2023/02/22 02:37:38;;;;;;;6.00;2.70;;;5.70;62.50;;;;;;5015449;28;20056;-75
2023/02/22 02:40:19;;;;;;;5.38;2.97;;;5.70;63.00;;;;;;5015893;28;20033;-75
2023/02/22 02:43:06;;;;;;;5.35;3.40;;;5.60;62.60;;;;;;5015953;28;20088;-77
2023/02/22 02:45:57;;;;;;;7.63;3.75;;;5.60;62.10;;;;;;5015541;28;20029;-75
2023/02/22 02:48:27;;;;;;;8.80;3.42;;;5.60;62.30;;;;;;5015554;28;20036;-75
2023/02/22 02:50:56;;;;;;;5.28;3.15;;;5.50;62.30;;;;;;5015739;28;20026;-75
2023/02/22 02:53:29;;;;;;;9.55;3.22;;;5.50;62.10;;;;;;5015628;28;20048;-75
2023/02/22 02:55:58;;;;;;;4.95;3.15;;;5.50;62.00;;;;;;5015664;28;20036;-75
2023/02/22 02:58:24;;;;;;;4.93;3.17;;;5.50;61.80;;;;;;5015699;28;20049;-75
2023/02/22 03:00:57;;;;;;;7.10;3.58;;;5.40;61.70;;;;;;5015405;28;20060;-75
2023/02/22 03:03:48;;;;;;;5.97;3.83;;;5.50;61.80;;;;;;5015391;28;20068;-75
2023/02/22 03:06:18;;;;;;;7.60;3.85;;;5.40;61.80;;;;;;5015599;28;20017;-75
2023/02/22 03:08:46;;;;;;;6.80;4.15;;;5.40;61.70;;;;;;5015489;28;20382;-74
2023/02/22 03:11:20;;;;;;;7.35;4.32;;;5.30;61.80;;;;;;5014934;28;20017;-74
2023/02/22 03:14:25;;;;;;;9.98;4.72;;;5.30;61.70;;;;;;5015378;28;20036;-75
2023/02/22 03:17:01;;;;;;;9.65;4.68;;;5.20;61.80;;;;;;5015248;28;20439;-75
2023/02/22 03:19:56;;;;;;;9.43;4.78;;;5.20;61.80;;;;;;5015427;28;20025;-75
2023/02/22 03:22:36;;;;;;;6.80;4.03;;;5.10;62.10;;;;;;4998119;28;20040;-74
2023/02/22 03:25:09;;;;;;;8.90;4.53;;;5.20;62.30;;;;;;5015199;28;20021;-74
2023/02/22 03:28:06;;;;;;;7.30;4.40;;;5.20;62.20;;;;;;5017492;28;20026;-74
2023/02/22 03:30:38;;;;;;;7.60;4.68;;;5.10;62.30;;;;;;5018274;28;20034;-74
2023/02/22 03:33:14;;;;;;;7.80;3.85;;;5.10;62.50;;;;;;5027538;28;20089;-74
2023/02/22 03:35:47;;;;;;;7.25;4.35;;;5.10;62.80;;;;;;5039035;28;20547;-74
2023/02/22 03:38:15;;;;;;;7.20;3.65;;;5.10;63.10;;;;;;5039012;28;20028;-74
2023/02/22 03:40:47;;;;;;;6.15;3.47;;;5.00;64.00;;;;;;5039036;28;20029;-78
2023/02/22 03:43:17;;;;;;;6.05;3.15;;;5.00;63.30;;;;;;5038837;28;20032;-78
2023/02/22 03:45:45;;;;;;;6.28;3.10;;;4.90;63.70;;;;;;5038915;28;20446;-78
2023/02/22 03:49:00;;;;;;;7.38;3.63;;;5.00;64.00;;;;;;5038924;28;20025;-75
2023/02/22 03:51:27;;;;;;;4.45;2.55;;;5.00;64.00;;;;;;5038890;28;20025;-76
2023/02/22 03:53:53;;;;;;;4.32;2.70;;;4.90;64.00;;;;;;5038470;28;20028;-77
2023/02/22 03:56:34;;;;;;;3.97;2.22;;;4.90;64.20;;;;;;5038097;28;20498;-76
2023/02/22 03:59:06;;;;;;;5.43;2.50;;;4.90;64.70;;;;;;5038741;28;20056;-75
2023/02/22 04:01:33;;;;;;;4.32;2.85;;;4.90;64.70;;;;;;5038544;28;20550;-75
2023/02/22 04:03:59;;;;;;;4.45;3.17;;;4.90;64.00;;;;;;5021629;28;20067;-75
2023/02/22 04:06:25;;;;;;;5.65;2.63;;;4.90;63.60;;;;;;5038396;28;20473;-75
2023/02/22 04:08:51;;;;;;;3.78;2.80;;;4.90;63.70;;;;;;5038095;28;20021;-75
2023/02/22 04:11:17;;;;;;;5.38;2.65;;;4.90;63.70;;;;;;5037761;28;20028;-75
2023/02/22 04:13:43;;;;;;;8.07;2.95;;;4.80;63.90;;;;;;5037826;28;20116;-75
2023/02/22 04:16:10;;;;;;;6.60;3.20;;;4.80;64.40;;;;;;5038022;28;20446;-74
2023/02/22 04:18:35;;;;;;;4.80;3.08;;;4.80;64.30;;;;;;5038358;28;20556;-75
2023/02/22 04:21:01;;;;;;;7.03;3.25;;;4.80;63.70;;;;;;5038226;28;20044;-74
2023/02/22 04:23:27;;;;;;;7.55;3.40;;;4.80;63.60;;;;;;5037822;28;20374;-75
2023/02/22 04:25:53;;;;;;;4.50;3.03;;;4.70;63.40;;;;;;5037813;28;20426;-74
2023/02/22 04:28:18;;;;;;;6.53;2.70;;;4.70;63.60;;;;;;5038049;28;20044;-75
2023/02/22 04:30:44;;;;;;;7.30;3.08;;;4.70;64.30;;;;;;5037868;28;20116;-74
2023/02/22 04:33:11;;;;;;;5.00;2.90;;;4.80;64.20;;;;;;5021145;28;20045;-75
2023/02/22 04:35:37;;;;;;;5.78;3.58;;;4.80;63.90;;;;;;5037601;28;20033;-75
2023/02/22 04:38:03;;;;;;;8.68;3.47;;;4.70;64.60;;;;;;5037167;28;20028;-76
2023/02/22 04:40:29;;;;;;;7.43;3.17;;;4.70;65.00;;;;;;5037720;28;20053;-76
2023/02/22 04:42:55;;;;;;;5.15;3.13;;;4.60;64.50;;;;;;5037369;28;20047;-76
2023/02/22 04:45:20;;;;;;;13.18;3.47;;;4.70;64.30;;;;;;5037681;28;20401;-75
2023/02/22 04:47:46;;;;;;;8.60;3.58;;;4.70;64.00;;;;;;5037761;28;20462;-75
2023/02/22 04:50:12;;;;;;;5.25;3.22;;;4.70;63.90;;;;;;5037445;28;20450;-77
2023/02/22 04:52:38;;;;;;;5.25;3.33;;;4.70;64.00;;;;;;5037277;28;20021;-75
2023/02/22 04:55:04;;;;;;;6.28;3.28;;;4.70;64.10;;;;;;5036864;28;20079;-75
2023/02/22 04:57:30;;;;;;;5.45;2.63;;;4.70;63.70;;;;;;5020739;28;20072;-75
2023/02/22 04:59:55;;;;;;;6.75;2.85;;;4.70;63.80;;;;;;5037188;28;20054;-75
2023/02/22 05:02:21;;;;;;;6.72;2.70;;;4.60;64.00;;;;;;5037019;28;20036;-75
2023/02/22 05:04:47;;;;;;;5.13;2.55;;;4.70;64.90;;;;;;5037038;28;20025;-75
2023/02/22 05:07:13;;;;;;;5.00;2.80;;;4.70;64.70;;;;;;5037152;28;20029;-75
2023/02/22 05:09:38;;;;;;;7.93;2.80;;;4.70;64.70;;;;;;5037051;28;20025;-75
2023/02/22 05:12:04;;;;;;;5.22;2.67;;;4.70;64.90;;;;;;5037191;28;20068;-75
2023/02/22 05:14:30;;;;;;;6.13;3.50;;;4.60;64.50;;;;;;5036942;28;20025;-75
2023/02/22 05:17:00;;;;;;;6.70;3.75;;;4.60;64.10;;;;;;5036793;28;20021;-75
2023/02/22 05:19:26;;;;;;;6.15;2.80;;;4.60;64.20;;;;;;5054738;28;20350;-76
2023/02/22 05:21:52;;;;;;;5.80;3.33;;;4.60;64.50;;;;;;5036857;28;20032;-76
2023/02/22 05:24:18;;;;;;;6.82;3.67;;;4.60;64.40;;;;;;5036942;28;20124;-75
2023/02/22 05:26:44;;;;;;;8.30;4.25;;;4.60;64.60;;;;;;5036437;28;20021;-75
2023/02/22 05:29:11;;;;;;;5.20;3.45;;;4.60;64.50;;;;;;5036769;28;20025;-76
2023/02/22 05:31:36;;;;;;;9.20;3.90;;;4.60;64.60;;;;;;5036737;28;20108;-76
2023/02/22 05:34:02;;;;;;;7.72;3.47;;;4.60;65.10;;;;;;5035968;28;20472;-75
2023/02/22 05:36:27;;;;;;;8.70;4.22;;;4.60;65.30;;;;;;5036040;28;20495;-76
2023/02/22 05:38:54;;;;;;;6.90;3.70;;;4.60;65.70;;;;;;5036139;28;20025;-75
2023/02/22 05:41:19;;;;;;;9.73;3.78;;;4.60;66.50;;;;;;5035930;28;20060;-75
2023/02/22 05:43:46;;;;;;;9.20;4.93;;;4.60;68.10;;;;;;5054048;28;20051;-75
2023/02/22 05:46:13;;;;;;;10.70;5.35;;;4.60;67.70;;;;;;5036142;28;20116;-75
2023/02/22 05:48:38;;;;;;;9.65;4.75;;;4.60;68.20;;;;;;5019631;28;20036;-76
2023/02/22 05:51:06;;;;;;;7.70;3.97;;;4.60;68.60;;;;;;5053457;28;20099;-75
2023/02/22 05:53:32;;;;;;;11.05;3.05;;;4.60;68.40;;;;;;5036310;28;20024;-75
2023/02/22 05:55:57;;;;;;;5.20;2.65;;;4.60;68.30;;;;;;5036357;28;20428;-74
2023/02/22 05:58:23;;;;;;;4.97;2.85;;;4.60;68.60;;;;;;5036322;28;20033;-75
2023/02/22 06:00:50;;;;;;;11.05;3.65;;;4.60;69.10;;;;;;5036071;28;20027;-75
2023/02/22 06:03:16;;;;;;;7.05;3.53;;;4.60;69.10;;;;;;5036150;28;20040;-75
2023/02/22 06:05:41;;;;;;;10.85;4.00;;;4.70;69.20;;;;;;5036416;28;20470;-74
2023/02/22 06:08:07;;;;;;;8.13;3.97;;;4.70;68.40;;;;;;5036212;28;20465;-76
2023/02/22 06:10:33;;;;;;;6.13;3.60;;;4.70;69.00;;;;;;5035818;28;20021;-75
2023/02/22 06:13:03;;;;;;;9.13;2.80;;;4.60;70.50;;;;;;5035953;28;20032;-76
2023/02/22 06:15:29;;;;;;;6.10;2.20;;;4.70;72.60;;;;;;5035663;28;20124;-75
2023/02/22 06:17:57;;;;;;;9.40;2.85;;;4.80;72.40;;;;;;5035813;28;20167;-75
2023/02/22 06:20:24;;;;;;;4.68;2.65;;;4.90;72.30;;;;;;5035696;28;20025;-74
2023/02/22 06:22:52;;;;;;;5.40;2.72;;;5.00;71.90;;;;;;5035851;28;20480;-74
2023/02/22 06:25:21;;;;;;;5.40;2.80;;;5.10;71.40;;;;;;5035731;28;20029;-75
2023/02/22 06:27:47;;;;;;;4.95;2.70;;;5.10;71.30;;;;;;5035130;28;20106;-75
2023/02/22 06:30:14;;;;;;;6.72;2.83;;;5.10;71.50;;;;;;5035231;28;20507;-75
2023/02/22 06:32:39;;;;;;;8.30;3.58;;;5.10;71.90;;;;;;5035084;28;20072;-75
2023/02/22 06:35:05;;;;;;;18.05;8.15;;;5.20;71.60;;;;;;5035274;28;20057;-75
2023/02/22 06:37:31;;;;;;;21.20;10.13;;;5.20;70.00;;;;;;5035077;28;20071;-75
2023/02/22 06:39:57;;;;;;;8.75;4.65;;;5.20;69.10;;;;;;5053229;28;20071;-74
2023/02/22 06:42:22;;;;;;;10.75;4.22;;;5.10;70.50;;;;;;5035269;28;20373;-75
2023/02/22 06:44:48;;;;;;;9.77;3.50;;;5.10;71.50;;;;;;5035317;28;20112;-78
2023/02/22 06:47:14;;;;;;;17.48;8.93;;;5.20;72.30;;;;;;5034711;28;20029;-79
2023/02/22 06:49:39;;;;;;;25.23;11.32;;;5.20;69.10;;;;;;5034964;28;20111;-80
2023/02/22 06:52:06;;;;;;;18.13;8.65;;;5.10;67.40;;;;;;5035287;28;20478;-79
2023/02/22 06:54:32;;;;;;;17.40;8.98;;;4.90;67.80;;;;;;5034852;28;20112;-80
2023/02/22 06:56:59;;;;;;;16.58;9.48;;;4.80;68.30;;;;;;5035025;28;20127;-79
2023/02/22 06:59:26;;;;;;;13.93;8.00;;;4.80;68.50;;;;;;5034962;28;20021;-80
2023/02/22 07:01:52;;;;;;;13.00;7.60;;;4.80;68.50;;;;;;5034755;28;20057;-74
2023/02/22 07:04:18;;;;;;;13.02;7.60;;;4.90;68.80;;;;;;5034924;28;20473;-74
2023/02/22 07:06:46;;;;;;;12.52;7.22;;;4.90;69.00;;;;;;5034992;28;20082;-74
2023/02/22 07:09:13;;;;;;;13.55;7.38;;;5.00;68.80;;;;;;5034947;28;20025;-74
2023/02/22 07:11:39;;;;;;;11.20;6.90;;;5.00;68.80;;;;;;5034950;28;20033;-74
2023/02/22 07:14:05;;;;;;;8.32;4.93;;;5.10;68.80;;;;;;5034985;28;20370;-74
2023/02/22 07:16:30;;;;;;;13.30;5.88;;;5.10;69.30;;;;;;5034235;28;20040;-76
2023/02/22 07:18:56;;;;;;;8.25;4.97;;;5.10;69.40;;;;;;5034780;28;20487;-76
2023/02/22 07:21:23;;;;;;;10.43;4.63;;;5.10;69.60;;;;;;5034439;28;20543;-74
2023/02/22 07:23:53;;;;;;;7.72;4.10;;;5.20;69.90;;;;;;5034939;28;20029;-75
2023/02/22 07:26:20;;;;;;;9.45;3.92;;;5.20;71.10;;;;;;5034802;28;20078;-75
2023/02/22 07:28:46;;;;;;;8.45;4.43;;;5.30;72.00;;;;;;5034469;28;20036;-75
2023/02/22 07:31:11;;;;;;;9.20;3.78;;;5.60;71.70;;;;;;5034571;28;20025;-74
2023/02/22 07:33:37;;;;;;;8.05;4.22;;;5.70;71.40;;;;;;5034505;28;20079;-76
2023/02/22 07:36:03;;;;;;;5.47;3.42;;;5.90;70.80;;;;;;5034302;28;20400;-74
2023/02/22 07:38:28;;;;;;;7.22;3.97;;;6.10;70.30;;;;;;5034676;28;20032;-75
2023/02/22 07:40:56;;;;;;;6.47;4.13;;;6.20;69.80;;;;;;5034336;28;20025;-76
2023/02/22 07:43:24;;;;;;;8.93;3.72;;;6.30;69.10;;;;;;5034438;28;20060;-74
2023/02/22 07:45:52;;;;;;;9.93;4.63;;;6.60;68.50;;;;;;5034592;28;20132;-74
2023/02/22 07:48:19;;;;;;;10.57;4.03;;;6.60;67.80;;;;;;5034578;28;20497;-75
2023/02/22 07:50:45;;;;;;;8.52;4.70;;;6.70;67.70;;;;;;5034165;28;20124;-74
2023/02/22 07:53:14;;;;;;;9.63;4.10;;;6.80;67.30;;;;;;5034005;28;20021;-75
2023/02/22 07:55:40;;;;;;;12.85;5.28;;;6.90;67.50;;;;;;5052175;28;20060;-75
2023/02/22 07:58:07;;;;;;;8.65;4.85;;;6.90;66.20;;;;;;5034789;28;20386;-75
2023/02/22 08:00:38;;;;;;;8.77;5.03;;;7.00;65.90;;;;;;5036688;28;20072;-75
2023/02/22 08:03:06;;;;;;;16.35;6.40;;;7.00;65.20;;;;;;5034227;28;20021;-76
2023/02/22 08:05:33;;;;;;;9.40;5.22;;;7.10;64.80;;;;;;5034081;28;20037;-75
2023/02/22 08:07:59;;;;;;;7.45;4.65;;;7.10;64.90;;;;;;5033933;28;20017;-75
2023/02/22 08:10:29;;;;;;;10.90;5.82;;;7.20;64.60;;;;;;5033893;28;20037;-73
2023/02/22 08:12:55;;;;;;;9.82;5.70;;;7.20;63.90;;;;;;5035890;28;20136;-74
2023/02/22 08:15:27;;;;;;;10.35;5.82;;;7.20;64.70;;;;;;5037833;28;20515;-75
2023/02/22 08:17:54;;;;;;;17.42;5.35;;;7.40;63.60;;;;;;5038882;28;20025;-78
2023/02/22 08:20:20;;;;;;;10.63;5.97;;;8.20;92.20;;;;;;5038891;28;20032;-75
2023/02/22 08:22:46;;;;;;;13.52;6.90;;;8.60;86.40;;;;;;5037750;28;20074;-74
2023/02/22 08:25:16;;;;;;;10.18;6.38;;;8.80;74.70;;;;;;5037868;28;20029;-75
2023/02/22 08:27:42;;;;;;;10.30;5.90;;;9.10;67.90;;;;;;5037679;28;20068;-76
2023/02/22 08:30:13;;;;;;;11.55;5.70;;;9.30;65.90;;;;;;5037734;28;20025;-77
2023/02/22 08:32:38;;;;;;;10.18;5.40;;;9.60;63.70;;;;;;5037821;28;20123;-75
2023/02/22 08:35:05;;;;;;;6.75;4.32;;;9.70;62.10;;;;;;5021279;28;20132;-73
2023/02/22 08:37:30;;;;;;;10.00;5.40;;;9.80;60.70;;;;;;5037248;28;20048;-73
2023/02/22 08:39:56;;;;;;;13.60;6.07;;;9.90;59.90;;;;;;5037368;28;20021;-73
2023/02/22 08:42:21;;;;;;;12.45;6.60;;;10.10;58.50;;;;;;5037570;28;20461;-75
2023/02/22 08:44:47;;;;;;;12.65;6.80;;;10.20;57.50;;;;;;5037195;28;20029;-76
2023/02/22 08:47:13;;;;;;;20.85;9.00;;;10.50;57.70;;;;;;5037477;28;20064;-77
2023/02/22 08:49:38;;;;;;;17.35;9.05;;;10.50;56.80;;;;;;5037608;28;20090;-77
2023/02/22 08:52:04;;;;;;;9.73;6.25;;;10.60;56.30;;;;;;5037253;28;20025;-78
2023/02/22 08:54:30;;;;;;;13.10;5.82;;;10.70;55.40;;;;;;5036701;28;20040;-77
2023/02/22 08:56:55;;;;;;;13.93;5.45;;;10.70;54.50;;;;;;5036407;28;20025;-76
2023/02/22 08:59:21;;;;;;;14.35;4.88;;;10.60;53.40;;;;;;5036968;28;20024;-76
2023/02/22 09:01:47;;;;;;;8.45;4.93;;;10.40;53.20;;;;;;5037152;28;20044;-76
2023/02/22 09:04:12;;;;;;;10.05;4.85;;;10.30;53.50;;;;;;5036682;28;20055;-76
2023/02/22 09:06:42;;;;;;;5.60;3.60;;;10.20;54.00;;;;;;5037357;28;20024;-76
2023/02/22 09:09:08;;;;;;;7.18;3.75;;;10.20;54.30;;;;;;5020138;28;20036;-76
2023/02/22 09:11:34;;;;;;;5.55;3.50;;;10.40;54.10;;;;;;5036446;28;20033;-76
2023/02/22 09:14:00;;;;;;;8.35;3.78;;;10.40;54.00;;;;;;5036866;28;20025;-77
2023/02/22 09:16:25;;;;;;;10.50;3.67;;;10.40;54.00;;;;;;5036770;28;20062;-79
2023/02/22 09:18:51;;;;;;;7.60;3.85;;;10.50;53.90;;;;;;5036652;28;20020;-79
2023/02/22 09:21:17;;;;;;;5.82;3.33;;;10.60;53.80;;;;;;5036576;28;20231;-78
2023/02/22 09:23:45;;;;;;;9.48;3.05;;;10.80;53.50;;;;;;5036324;28;20021;-77
2023/02/22 09:26:10;;;;;;;5.97;3.47;;;11.00;53.30;;;;;;5036588;28;20108;-79
2023/02/22 09:28:36;;;;;;;5.43;3.60;;;11.20;53.20;;;;;;5037048;28;20106;-76
2023/02/22 09:31:01;;;;;;;7.13;3.20;;;11.20;52.60;;;;;;5037493;28;20361;-77
2023/02/22 09:33:27;;;;;;;8.43;3.53;;;11.40;52.20;;;;;;5038685;28;20040;-78
2023/02/22 09:35:53;;;;;;;14.20;3.78;;;11.50;51.90;;;;;;5039944;28;20485;-76
2023/02/22 09:38:23;;;;;;;8.60;3.60;;;11.70;51.40;;;;;;5037034;28;20017;-76
2023/02/22 09:40:53;;;;;;;6.35;3.08;;;11.90;51.00;;;;;;5055262;28;20029;-77
2023/02/22 09:43:40;;;;;;;7.32;3.25;;;12.20;50.30;;;;;;5036627;28;20025;-77
2023/02/22 09:46:40;;;;;;;5.25;2.60;;;12.40;49.40;;;;;;5031137;28;20032;-79
2023/02/22 09:49:15;;;;;;;5.57;2.92;;;12.60;48.30;;;;;;5036382;28;20079;-79
2023/02/22 09:52:06;;;;;;;8.18;2.90;;;12.80;47.90;;;;;;5036261;28;20031;-77
2023/02/22 09:54:43;;;;;;;10.07;3.72;;;12.90;47.50;;;;;;5020235;28;20418;-76
2023/02/22 09:57:16;;;;;;;10.20;3.45;;;12.90;47.00;;;;;;5036038;28;20036;-75
2023/02/22 10:00:15;;;;;;;10.00;4.57;;;12.90;46.60;;;;;;5034336;28;20075;-74
2023/02/22 10:03:08;;;;;;;10.75;4.55;;;12.70;47.80;;;;;;5050429;28;20031;-76
2023/02/22 10:05:40;;;;;;;11.45;4.05;;;12.80;47.90;;;;;;5033865;28;20021;-76
2023/02/22 10:08:13;;;;;;;9.18;4.00;;;12.80;48.70;;;;;;5032888;28;20480;-77
2023/02/22 10:10:44;;;;;;;10.15;3.78;;;12.80;49.10;;;;;;5034579;28;20406;-76
2023/02/22 10:13:30;;;;;;;14.25;4.28;;;12.70;49.80;;;;;;5034523;28;20066;-77
2023/02/22 10:16:09;;;;;;;;;;;12.70;50.80;;;;;;5034530;28;20033;-79
2023/02/22 10:18:48;;;;;;;10.50;4.13;;;12.80;51.10;;;;;;5034085;28;19912;-76
2023/02/22 10:21:37;;;;;;;9.23;3.95;;;12.80;50.70;;;;;;5034572;28;20052;-79
2023/02/22 10:24:38;;;;;;;7.57;4.00;;;13.00;50.40;;;;;;5031749;28;20044;-76
2023/02/22 10:27:07;;;;;;;5.93;3.50;;;13.20;49.30;;;;;;5032054;28;20037;-79
2023/02/22 10:29:41;;;;;;;9.43;3.83;;;13.20;48.60;;;;;;5034071;28;20032;-79
2023/02/22 10:32:16;;;;;;;13.43;4.82;;;13.40;48.20;;;;;;5032224;28;20473;-78
2023/02/22 10:34:52;;;;;;;17.80;5.75;;;13.60;47.60;;;;;;5032217;28;20436;-79
2023/02/22 10:37:29;;;;;;;13.43;5.57;;;13.60;48.10;;;;;;5034149;28;20043;-79
2023/02/22 10:40:17;;;;;;;9.70;4.85;;;13.80;47.90;;;;;;5033277;28;20025;-79
2023/02/22 10:42:43;;;;;;;11.15;5.60;;;13.90;47.90;;;;;;5032236;28;20021;-76
2023/02/22 10:45:23;;;;;;;13.85;6.65;;;14.10;47.70;;;;;;5018015;28;20458;-76
2023/02/22 10:47:53;;;;;;;12.48;6.38;;;14.30;47.30;;;;;;5032549;28;20422;-76
2023/02/22 10:50:19;;;;;;;14.52;9.18;;;14.40;47.20;;;;;;5017484;28;20036;-77
2023/02/22 10:52:46;;;;;;;14.10;8.32;;;14.60;46.40;;;;;;5034559;28;20359;-76
2023/02/22 10:55:14;;;;;;;14.70;8.23;;;14.90;45.90;;;;;;5033956;28;20024;-77
2023/02/22 10:57:46;;;;;;;15.65;8.30;;;15.20;45.40;;;;;;5049837;28;20092;-77
2023/02/22 11:00:25;;;;;;;14.18;8.95;;;15.30;43.90;;;;;;5034655;28;20106;-76
2023/02/22 11:03:01;;;;;;;14.23;8.55;;;15.30;38.70;;;;;;5035133;28;20112;-76
2023/02/22 11:05:35;;;;;;;14.35;9.23;;;15.10;34.60;;;;;;5033898;28;20029;-75
2023/02/22 11:08:19;;;;;;;15.55;8.27;;;15.10;34.60;;;;;;5034229;28;20071;-74
2023/02/22 11:10:48;;;;;;;18.50;9.30;;;15.30;34.80;;;;;;5034464;28;20031;-77
2023/02/22 11:13:18;;;;;;;18.20;9.93;;;15.40;34.50;;;;;;5034692;28;20049;-78
2023/02/22 11:15:44;;;;;;;15.20;9.00;;;15.30;34.80;;;;;;5034803;28;20044;-77
2023/02/22 11:18:37;;;;;;;15.27;9.60;;;15.60;35.80;;;;;;5034574;28;20033;-78
2023/02/22 11:21:10;;;;;;;21.30;9.93;;;16.10;34.60;;;;;;5032336;28;20037;-79
2023/02/22 11:23:38;;;;;;;18.48;9.32;;;16.50;32.20;;;;;;5035019;28;20131;-79
2023/02/22 11:26:14;;;;;;;18.45;9.25;;;16.70;32.20;;;;;;5018301;28;20496;-78
2023/02/22 11:28:48;;;;;;;15.40;9.20;;;17.10;31.20;;;;;;5034591;28;20021;-78
2023/02/22 11:31:16;;;;;;;16.85;9.27;;;17.20;30.60;;;;;;5034512;28;20025;-77
2023/02/22 11:34:23;;;;;;;21.52;12.13;;;17.20;31.00;;;;;;5034231;28;20094;-78
2023/02/22 11:36:50;;;;;;;21.90;12.50;;;17.60;29.40;;;;;;5034125;28;20044;-76
2023/02/22 11:39:33;;;;;;;20.33;11.20;;;17.60;29.50;;;;;;5034363;28;20035;-76
2023/02/22 11:42:21;;;;;;;21.30;10.77;;;17.70;30.50;;;;;;5034496;28;20036;-76
2023/02/22 11:44:47;;;;;;;18.38;8.95;;;17.90;29.70;;;;;;5034225;28;20029;-76
2023/02/22 11:47:13;;;;;;;16.13;8.30;;;17.60;29.50;;;;;;5034217;28;20152;-76
2023/02/22 11:49:44;;;;;;;13.27;7.65;;;18.00;29.10;;;;;;5038538;28;20017;-76
2023/02/22 11:52:27;;;;;;;15.10;8.00;;;18.40;28.00;;;;;;5038464;28;20024;-76
2023/02/22 11:55:08;;;;;;;18.05;8.65;;;18.40;27.70;;;;;;5038266;28;20071;-75
2023/02/22 11:57:45;;;;;;;18.27;8.65;;;18.60;27.30;;;;;;5038004;28;20029;-74
2023/02/22 12:00:44;;;;;;;12.20;7.75;;;19.10;27.80;;;;;;5038512;28;20543;-77
2023/02/22 12:03:43;;;;;;;12.95;7.78;;;19.60;27.50;;;;;;5038993;28;20032;-76
2023/02/22 12:06:28;;;;;;;17.05;8.25;;;19.50;26.00;;;;;;5038471;28;20029;-74
2023/02/22 12:09:06;;;;;;;23.67;9.73;;;19.50;27.00;;;;;;5038280;28;20032;-78
2023/02/22 12:12:12;;;;;;;25.85;9.35;;;18.70;27.30;;;;;;5055948;28;20032;-77
2023/02/22 12:15:16;;;;;;;19.40;9.20;;;18.30;28.30;;;;;;5038178;28;20472;-77
2023/02/22 12:18:20;;;;;;;16.35;8.90;;;18.10;28.70;;;;;;5037812;28;20025;-78
2023/02/22 12:20:56;;;;;;;15.18;7.72;;;18.00;28.90;;;;;;5038095;28;20071;-81
2023/02/22 12:23:30;;;;;;;18.52;8.43;;;18.10;29.60;;;;;;5021544;28;20545;-77
2023/02/22 12:26:23;;;;;;;20.15;8.55;;;18.40;29.70;;;;;;5037978;28;20501;-77
2023/02/22 12:29:14;;;;;;;16.55;8.30;;;18.40;29.80;;;;;;5037563;28;20045;-77
2023/02/22 12:31:56;;;;;;;12.68;7.38;;;18.60;29.40;;;;;;5038131;28;20036;-80
2023/02/22 12:34:28;;;;;;;15.82;8.40;;;18.60;29.00;;;;;;5037671;28;20132;-76
2023/02/22 12:37:08;;;;;;;18.83;9.05;;;18.20;29.60;;;;;;5037748;28;20033;-79
2023/02/22 12:39:52;;;;;;;15.32;8.82;;;18.30;29.80;;;;;;5056103;28;20025;-81
2023/02/22 12:42:26;;;;;;;18.25;8.82;;;18.70;28.90;;;;;;5039098;28;20040;-80
2023/02/22 12:45:06;;;;;;;18.50;9.05;;;19.00;28.80;;;;;;5038303;28;20059;-80
2023/02/22 12:47:41;;;;;;;14.73;9.55;;;19.00;28.80;;;;;;5037906;28;20047;-79
2023/02/22 12:50:33;;;;;;;17.27;9.27;;;19.20;28.70;;;;;;5037377;28;20021;-82
2023/02/22 12:53:18;;;;;;;14.10;8.95;;;19.70;27.90;;;;;;5052682;28;20295;-78
2023/02/22 12:56:05;;;;;;;20.40;9.18;;;19.20;28.30;;;;;;5037213;28;20032;-79
2023/02/22 12:58:52;;;;;;;13.95;7.85;;;19.10;28.80;;;;;;5035520;28;20033;-78
2023/02/22 13:01:21;;;;;;;16.20;8.40;;;19.40;28.60;;;;;;5037534;28;20021;-78
2023/02/22 13:03:48;;;;;;;17.23;9.10;;;19.50;29.00;;;;;;5037168;28;20026;-78
2023/02/22 13:06:34;;;;;;;16.17;8.23;;;18.90;30.50;;;;;;5037342;28;20029;-77
2023/02/22 13:09:36;;;;;;;14.40;7.57;;;18.60;31.30;;;;;;5037096;28;20147;-78
2023/02/22 13:12:18;;;;;;;14.68;7.97;;;18.90;31.30;;;;;;5036958;28;20033;-78
2023/02/22 13:15:30;;;;;;;12.77;7.70;;;19.40;31.00;;;;;;5036704;28;20036;-77